Etusivu
METAR-TAF:

METAR-TAF

Lentoasemat :

Blue River, Brittiläinen Kolumbia, Kanada

Leveyspiiri: 52-08N, Pituuspiiri: 119-18W, korkeus merenpinnasta: 679 m

Tämänhetkinen sää

Tämä raportti tehtiin 12 tuntia ja 34 minuuttia sitten, kello 00.00 UTC
tyyntä
Lämpötila 0°C
Kosteus 100%
Ilmanpaine 1017 hPa
Näkyvyys: 4.8 km
Muutamia pilviä 200 ft:n korkeudessa
Hajanaisia pilviä 1600 ft:n korkeudessa
Pilvistä 5000 ft:n korkeudessa
utua

METAR: CYCP 130000Z 00000KT 3SM BR FEW002 SCT016 OVC050 00/M00 A3004 RMK ST1SC4SC3 LAST STFD OBS/NEXT 131400Z SLP206

Aika: 04:34 (12:34 UTC)


TAF: puuttuu

Säähavainnot ja -ennusteet yli 4000 lentoasemalta (METAR- ja TAF-raportit).

Käytössä olevat sääasemat on merkitty karttaan keltaisilla ja punaisilla pisteillä.

Aseta hiiri pisteen päälle nähdäksesi sääaseman nimen.

Klikkaa sitten nähdäksesi säähavainnot ja -ennusteet.

Kartan vaihtaminen: klikkaa mustalla rastilla varustettuja vihreitä pisteitä, niin voit zoomata sisään; viivalla varustettua vihreää pistettä, niin voit zoomata ulos tai vihreitä nuolia, niin pääset viereisille kartoille.


METAR-TAF: